createdAt,value
2022-11-12T00:00:56.391Z,85.30
2022-11-12T00:03:29.453Z,81.10
2022-11-12T00:06:02.576Z,84.90
2022-11-12T00:08:35.216Z,76.80
2022-11-12T00:11:07.597Z,75.90
2022-11-12T00:13:39.908Z,77.60
2022-11-12T00:16:12.965Z,80.90
2022-11-12T00:18:44.897Z,85.60
2022-11-12T00:21:18.764Z,84.40
2022-11-12T00:23:50.569Z,92.20
2022-11-12T00:26:22.889Z,82.70
2022-11-12T00:28:55.237Z,82.10
2022-11-12T00:31:29.175Z,79.30
2022-11-12T00:34:03.436Z,76.10
2022-11-12T00:36:37.222Z,74.20
2022-11-12T00:39:11.413Z,74.00
2022-11-12T00:41:44.222Z,76.70
2022-11-12T00:44:16.026Z,75.30
2022-11-12T00:46:48.658Z,70.70
2022-11-12T00:49:23.066Z,68.50
2022-11-12T00:51:55.971Z,70.50
2022-11-12T00:54:34.765Z,67.00
2022-11-12T00:57:08.010Z,66.40
2022-11-12T00:59:41.051Z,65.40
2022-11-12T01:02:13.181Z,68.50
2022-11-12T01:04:46.821Z,67.10
2022-11-12T01:07:20.180Z,63.40
2022-11-12T01:09:52.582Z,66.00
2022-11-12T01:12:24.525Z,65.90
2022-11-12T01:14:57.181Z,64.80
2022-11-12T01:17:31.477Z,67.60
2022-11-12T01:20:03.793Z,68.70
2022-11-12T01:22:35.657Z,72.60
2022-11-12T01:25:10.228Z,80.20
2022-11-12T01:27:43.510Z,79.80
2022-11-12T01:30:16.296Z,67.80
2022-11-12T01:32:49.190Z,67.90
2022-11-12T01:35:21.505Z,66.20
2022-11-12T01:37:53.834Z,67.00
2022-11-12T01:40:28.335Z,66.80
2022-11-12T01:43:00.653Z,69.00
2022-11-12T01:45:33.892Z,73.90
2022-11-12T01:48:09.266Z,72.50
2022-11-12T01:50:44.506Z,71.80
2022-11-12T01:53:18.659Z,71.70
2022-11-12T01:55:52.811Z,67.30
2022-11-12T01:58:28.511Z,69.20
2022-11-12T02:01:00.723Z,68.70
2022-11-12T02:03:33.997Z,68.30
2022-11-12T02:06:10.441Z,72.40
2022-11-12T02:08:44.099Z,69.40
2022-11-12T02:11:19.359Z,72.40
2022-11-12T02:14:06.385Z,81.60
2022-11-12T02:16:40.459Z,73.30
2022-11-12T02:19:15.690Z,72.00
2022-11-12T02:21:50.424Z,68.30
2022-11-12T02:24:38.646Z,64.80
2022-11-12T02:27:12.152Z,67.50
2022-11-12T02:29:47.419Z,68.10
2022-11-12T02:32:20.705Z,68.60
2022-11-12T02:34:54.619Z,70.50
2022-11-12T02:37:29.547Z,69.40
2022-11-12T02:40:06.774Z,68.20
2022-11-12T02:42:38.727Z,69.80
2022-11-12T02:45:14.228Z,91.10
2022-11-12T02:47:46.019Z,95.80
2022-11-12T02:50:19.962Z,80.30
2022-11-12T02:52:51.796Z,94.70
2022-11-12T02:55:24.442Z,86.40
2022-11-12T02:58:00.354Z,86.00
2022-11-12T03:00:33.528Z,73.60
2022-11-12T03:03:05.693Z,74.20
2022-11-12T03:05:38.377Z,70.00
2022-11-12T03:08:11.377Z,81.20
2022-11-12T03:10:47.385Z,78.30
2022-11-12T03:13:19.850Z,99.20
2022-11-12T03:15:54.025Z,92.90
2022-11-12T03:18:26.800Z,86.20
2022-11-12T03:20:59.932Z,89.50
2022-11-12T03:23:33.893Z,92.70
2022-11-12T03:26:08.453Z,96.50
2022-11-12T03:28:40.419Z,85.40
2022-11-12T03:31:13.116Z,84.70
2022-11-12T03:33:46.443Z,82.90
2022-11-12T03:36:18.999Z,79.90
2022-11-12T03:38:54.665Z,85.30
2022-11-12T03:41:28.435Z,82.70
2022-11-12T03:44:04.237Z,80.70
2022-11-12T03:46:43.892Z,74.00
2022-11-12T03:49:19.217Z,76.90
2022-11-12T03:51:51.560Z,81.20
2022-11-12T03:54:23.356Z,84.50
2022-11-12T03:56:56.310Z,89.20
2022-11-12T03:59:28.970Z,84.80
2022-11-12T04:02:00.690Z,92.90
2022-11-12T04:04:48.270Z,92.50
2022-11-12T04:07:39.516Z,80.80
2022-11-12T04:10:12.866Z,80.60
2022-11-12T04:13:02.958Z,92.50
2022-11-12T04:15:35.477Z,86.00
2022-11-12T04:18:38.191Z,89.90
2022-11-12T04:21:31.208Z,84.80
2022-11-12T04:24:06.509Z,105.80
2022-11-12T04:26:39.978Z,101.10
2022-11-12T04:29:33.778Z,87.10
2022-11-12T04:32:09.469Z,76.90
2022-11-12T04:34:42.188Z,78.60
2022-11-12T04:37:23.221Z,72.90
2022-11-12T04:40:17.094Z,78.90
2022-11-12T04:43:15.284Z,81.30
2022-11-12T04:45:50.048Z,83.50
2022-11-12T04:48:22.819Z,76.10
2022-11-12T04:50:57.081Z,77.20
2022-11-12T04:53:30.901Z,73.90
2022-11-12T04:56:02.757Z,79.60
2022-11-12T04:58:34.665Z,89.40
2022-11-12T05:01:07.243Z,103.10
2022-11-12T05:03:39.881Z,116.00
2022-11-12T05:06:28.956Z,109.60
2022-11-12T05:09:04.870Z,125.10
2022-11-12T05:11:37.753Z,112.90
2022-11-12T05:14:11.788Z,109.00
2022-11-12T05:16:43.702Z,97.40
2022-11-12T05:19:17.799Z,87.20
2022-11-12T05:22:17.594Z,84.80
2022-11-12T05:25:00.216Z,88.50
2022-11-12T05:27:38.653Z,89.70
2022-11-12T05:30:13.480Z,87.40
2022-11-12T05:32:46.485Z,93.50
2022-11-12T05:35:19.405Z,100.30
2022-11-12T05:37:53.989Z,112.70
2022-11-12T05:40:27.134Z,112.30
2022-11-12T05:43:01.507Z,116.90
2022-11-12T05:45:33.634Z,118.30
2022-11-12T05:48:06.934Z,112.00
2022-11-12T05:50:51.641Z,111.40
2022-11-12T05:53:33.532Z,106.40
2022-11-12T05:56:06.944Z,101.80
2022-11-12T05:58:39.940Z,105.50
2022-11-12T06:01:11.821Z,102.00
2022-11-12T06:03:46.014Z,104.40
2022-11-12T06:06:18.820Z,103.10
2022-11-12T06:08:53.028Z,99.10
2022-11-12T06:11:25.513Z,91.50
2022-11-12T06:13:59.644Z,93.90
2022-11-12T06:16:32.614Z,91.70
2022-11-12T06:19:06.093Z,93.70
2022-11-12T06:21:38.521Z,93.80
2022-11-12T06:24:11.721Z,99.50
2022-11-12T06:26:44.128Z,101.80
2022-11-12T06:29:18.430Z,97.60
2022-11-12T06:31:51.056Z,95.00
2022-11-12T06:34:23.001Z,94.50
2022-11-12T06:36:55.492Z,93.40
2022-11-12T06:39:28.106Z,91.70
2022-11-12T06:42:02.190Z,94.40
2022-11-12T06:44:35.963Z,89.60
2022-11-12T06:47:09.111Z,89.30
2022-11-12T06:49:42.244Z,85.50
2022-11-12T06:52:18.274Z,100.30
2022-11-12T06:54:50.776Z,82.50
2022-11-12T06:57:22.855Z,82.80
2022-11-12T06:59:55.440Z,81.60
2022-11-12T07:02:27.889Z,82.80
2022-11-12T07:05:01.119Z,87.10
2022-11-12T07:07:34.199Z,80.80
2022-11-12T07:10:07.537Z,81.50
2022-11-12T07:12:39.516Z,73.80
2022-11-12T07:15:13.327Z,78.70
2022-11-12T07:17:49.553Z,76.70
2022-11-12T07:20:23.337Z,77.10
2022-11-12T07:22:57.566Z,77.40
2022-11-12T07:25:29.647Z,79.40
2022-11-12T07:28:03.720Z,70.20
2022-11-12T07:30:41.801Z,72.80
2022-11-12T07:33:15.241Z,70.70
2022-11-12T07:35:47.620Z,82.30
2022-11-12T07:38:20.566Z,74.40
2022-11-12T07:40:53.151Z,75.40
2022-11-12T07:43:26.265Z,74.90
2022-11-12T07:46:07.472Z,79.00
2022-11-12T07:48:42.889Z,71.80
2022-11-12T07:51:18.847Z,69.70
2022-11-12T07:53:57.754Z,73.60
2022-11-12T07:56:32.789Z,68.70
2022-11-12T07:59:08.161Z,68.60
2022-11-12T08:01:43.973Z,70.90
2022-11-12T08:04:16.974Z,74.90
2022-11-12T08:06:51.212Z,72.50
2022-11-12T08:09:23.373Z,71.10
2022-11-12T08:11:59.522Z,66.60
2022-11-12T08:14:31.838Z,68.80
2022-11-12T08:17:11.067Z,67.80
2022-11-12T08:19:44.840Z,70.00
2022-11-12T08:22:20.053Z,65.90
2022-11-12T08:24:52.891Z,67.60
2022-11-12T08:27:28.112Z,68.00
2022-11-12T08:30:01.174Z,65.30
2022-11-12T08:32:37.732Z,62.60
2022-11-12T08:35:11.737Z,62.40
2022-11-12T08:37:47.233Z,60.70
2022-11-12T08:40:19.572Z,58.40
2022-11-12T08:43:00.227Z,58.00
2022-11-12T08:45:35.248Z,60.10
2022-11-12T08:48:10.227Z,55.30
2022-11-12T08:50:43.226Z,55.00
2022-11-12T08:53:19.293Z,54.80
2022-11-12T08:55:56.420Z,56.50
2022-11-12T08:58:30.835Z,60.90
2022-11-12T09:01:13.562Z,52.90
2022-11-12T09:03:47.075Z,51.40
2022-11-12T09:06:22.239Z,53.90
2022-11-12T09:08:56.018Z,51.60
2022-11-12T09:11:29.561Z,51.90
2022-11-12T09:14:01.720Z,46.70
2022-11-12T09:16:34.500Z,45.60
2022-11-12T09:19:07.019Z,46.40
2022-11-12T09:21:39.941Z,44.30
2022-11-12T09:24:12.303Z,44.30
2022-11-12T09:26:44.183Z,45.60
2022-11-12T09:29:17.393Z,46.00
2022-11-12T09:31:50.468Z,52.20
2022-11-12T09:34:24.142Z,47.80
2022-11-12T09:36:58.633Z,46.30
2022-11-12T09:39:32.814Z,47.80
2022-11-12T09:42:09.332Z,47.30
2022-11-12T09:44:43.600Z,46.60
2022-11-12T09:47:20.783Z,53.70
2022-11-12T09:50:03.519Z,51.10
2022-11-12T09:52:36.029Z,41.30
2022-11-12T09:55:14.383Z,36.40
2022-11-12T09:57:46.984Z,34.00
2022-11-12T10:00:21.391Z,34.50
2022-11-12T10:02:57.016Z,86.90
2022-11-12T10:05:32.801Z,39.20
2022-11-12T10:08:26.285Z,33.40
2022-11-12T10:11:07.814Z,32.50
2022-11-12T10:13:54.453Z,28.30
2022-11-12T10:16:49.128Z,28.70
2022-11-12T10:19:30.201Z,23.00
2022-11-12T10:22:18.078Z,25.80
2022-11-12T10:24:51.260Z,27.40
2022-11-12T10:27:26.712Z,25.80
2022-11-12T10:30:03.166Z,28.40
2022-11-12T10:32:35.207Z,29.80
2022-11-12T10:35:08.461Z,22.10
2022-11-12T10:37:44.022Z,30.40
2022-11-12T10:40:37.625Z,24.50
2022-11-12T10:43:23.923Z,24.00
2022-11-12T10:46:20.084Z,24.10
2022-11-12T10:49:00.388Z,23.50
2022-11-12T10:51:34.925Z,23.80
2022-11-12T10:57:22.554Z,21.50
2022-11-12T11:00:15.962Z,23.90
2022-11-12T11:02:52.078Z,20.50
2022-11-12T11:05:34.285Z,17.70
2022-11-12T11:08:11.464Z,17.30
2022-11-12T11:10:43.533Z,16.80
2022-11-12T11:13:24.416Z,22.20
2022-11-12T11:16:08.633Z,20.70
2022-11-12T11:18:43.316Z,17.70
2022-11-12T11:21:30.532Z,17.20
2022-11-12T11:24:13.981Z,16.00
2022-11-12T11:26:56.578Z,14.40
2022-11-12T11:29:49.945Z,14.50
2022-11-12T11:32:57.108Z,14.60
2022-11-12T11:35:42.200Z,15.90
2022-11-12T11:38:27.442Z,19.00
2022-11-12T11:41:08.925Z,15.00
2022-11-12T11:43:53.010Z,14.40
2022-11-12T11:46:37.904Z,16.00
2022-11-12T11:49:25.481Z,13.20
2022-11-12T11:52:01.125Z,19.20
2022-11-12T11:54:57.467Z,14.60
2022-11-12T11:57:34.557Z,17.00
2022-11-12T12:00:15.792Z,16.40
2022-11-12T12:03:05.238Z,19.10
2022-11-12T12:05:43.477Z,17.40
2022-11-12T12:08:28.430Z,15.90
2022-11-12T12:11:09.083Z,15.30
2022-11-12T12:13:55.987Z,11.70
2022-11-12T12:16:36.989Z,13.50
2022-11-12T12:19:18.525Z,15.00
2022-11-12T12:21:53.674Z,14.50
2022-11-12T12:24:28.265Z,12.50
2022-11-12T12:27:06.024Z,15.10
2022-11-12T12:29:44.011Z,14.70
2022-11-12T12:32:23.986Z,13.90
2022-11-12T12:35:02.702Z,13.30
2022-11-12T12:37:39.188Z,12.40
2022-11-12T12:40:19.424Z,13.10
2022-11-12T12:42:58.846Z,13.90
2022-11-12T12:45:39.771Z,14.80
2022-11-12T12:48:19.001Z,11.30
2022-11-12T12:50:54.513Z,10.90
2022-11-12T12:53:37.001Z,11.60
2022-11-12T12:56:32.758Z,11.30
2022-11-12T12:59:09.933Z,11.30
2022-11-12T13:01:42.030Z,12.30
2022-11-12T13:04:15.590Z,12.00
2022-11-12T13:06:55.968Z,12.00
2022-11-12T13:09:29.829Z,11.20
2022-11-12T13:12:21.008Z,12.00
2022-11-12T13:15:19.352Z,12.20
2022-11-12T13:17:53.437Z,12.30
2022-11-12T13:20:42.949Z,12.90
2022-11-12T13:24:06.004Z,12.40
2022-11-12T13:26:55.306Z,10.60
2022-11-12T13:29:42.945Z,11.30
2022-11-12T13:32:35.145Z,11.40
2022-11-12T13:35:27.936Z,14.10
2022-11-12T13:38:02.607Z,20.80
2022-11-12T13:40:49.650Z,15.40
2022-11-12T13:43:32.599Z,14.20
2022-11-12T13:46:24.742Z,15.40
2022-11-12T13:49:01.258Z,16.00
2022-11-12T13:51:40.821Z,21.20
2022-11-12T13:54:34.401Z,16.20
2022-11-12T13:57:31.875Z,21.00
2022-11-12T14:00:24.378Z,14.90
2022-11-12T14:02:58.521Z,14.50
2022-11-12T14:05:32.205Z,12.60
2022-11-12T14:08:47.053Z,18.60
2022-11-12T14:11:53.154Z,20.00
2022-11-12T14:14:36.356Z,25.70
2022-11-12T14:17:22.176Z,21.40
2022-11-12T14:20:30.765Z,16.20
2022-11-12T14:23:20.068Z,19.80
2022-11-12T14:25:57.836Z,22.50
2022-11-12T14:28:31.366Z,18.50
2022-11-12T14:31:05.009Z,18.60
2022-11-12T14:33:36.985Z,19.10
2022-11-12T14:36:14.422Z,19.60
2022-11-12T14:38:50.975Z,20.30
2022-11-12T14:41:26.970Z,21.50
2022-11-12T14:44:12.147Z,26.00
2022-11-12T14:46:49.517Z,21.50
2022-11-12T14:49:29.203Z,25.60
2022-11-12T14:52:08.024Z,32.70
2022-11-12T14:54:43.869Z,38.20
2022-11-12T14:57:23.641Z,35.40
2022-11-12T14:59:58.060Z,31.20
2022-11-12T15:02:47.358Z,32.30
2022-11-12T15:05:26.782Z,30.70
2022-11-12T15:08:03.593Z,32.20
2022-11-12T15:10:40.184Z,31.40
2022-11-12T15:13:13.995Z,29.90
2022-11-12T15:15:55.033Z,30.30
2022-11-12T15:18:29.597Z,39.70
2022-11-12T15:21:15.637Z,36.80
2022-11-12T15:23:52.683Z,35.30
2022-11-12T15:26:35.037Z,44.90
2022-11-12T15:29:16.925Z,60.30
2022-11-12T15:31:56.278Z,53.10
2022-11-12T15:34:47.844Z,62.10
2022-11-12T15:37:28.614Z,115.80
2022-11-12T15:40:03.379Z,114.40
2022-11-12T15:42:39.871Z,188.50
2022-11-12T15:45:17.854Z,87.00
2022-11-12T15:47:52.011Z,73.00
2022-11-12T15:50:25.831Z,86.10
2022-11-12T15:53:00.739Z,65.50
2022-11-12T15:55:32.567Z,77.50
2022-11-12T15:58:06.577Z,78.10
2022-11-12T16:00:41.126Z,80.10
2022-11-12T16:03:17.081Z,70.50
2022-11-12T16:05:50.211Z,99.40
2022-11-12T16:08:25.210Z,101.20
2022-11-12T16:10:57.995Z,90.50
2022-11-12T16:13:33.461Z,73.90
2022-11-12T16:16:11.875Z,89.90
2022-11-12T16:18:45.418Z,107.60
2022-11-12T16:21:20.776Z,103.30
2022-11-12T16:23:55.420Z,114.90
2022-11-12T16:26:31.741Z,160.30
2022-11-12T16:29:06.108Z,265.40
2022-11-12T16:31:38.243Z,196.30
2022-11-12T16:34:10.149Z,173.40
2022-11-12T16:36:42.989Z,182.70
2022-11-12T16:39:18.656Z,216.80
2022-11-12T16:41:51.958Z,191.40
2022-11-12T16:44:24.200Z,157.10
2022-11-12T16:46:56.451Z,151.00
2022-11-12T16:49:28.922Z,135.30
2022-11-12T16:52:01.954Z,126.20
2022-11-12T16:54:34.633Z,135.60
2022-11-12T16:57:10.067Z,131.20
2022-11-12T16:59:43.963Z,110.50
2022-11-12T17:02:17.901Z,91.30
2022-11-12T17:04:53.936Z,82.60
2022-11-12T17:07:28.101Z,91.90
2022-11-12T17:10:02.685Z,86.00
2022-11-12T17:12:35.693Z,79.60
2022-11-12T17:15:10.760Z,78.70
2022-11-12T17:17:45.706Z,77.60
2022-11-12T17:20:19.113Z,72.00
2022-11-12T17:22:53.276Z,88.50
2022-11-12T17:25:26.704Z,103.00
2022-11-12T17:27:58.912Z,113.00
2022-11-12T17:30:31.944Z,117.10
2022-11-12T17:33:03.867Z,115.70
2022-11-12T17:35:38.443Z,115.40
2022-11-12T17:38:12.206Z,115.20
2022-11-12T17:40:47.071Z,101.30
2022-11-12T17:43:19.087Z,110.10
2022-11-12T17:45:54.069Z,100.70
2022-11-12T17:48:26.623Z,94.90
2022-11-12T17:51:07.557Z,94.50
2022-11-12T17:53:40.259Z,102.50
2022-11-12T17:56:15.348Z,98.20
2022-11-12T17:58:47.785Z,112.70
2022-11-12T18:01:21.829Z,111.50
2022-11-12T18:03:55.589Z,109.30
2022-11-12T18:06:31.574Z,119.50
2022-11-12T18:09:05.902Z,104.30
2022-11-12T18:11:45.204Z,103.60
2022-11-12T18:14:19.028Z,110.60
2022-11-12T18:16:51.688Z,113.00
2022-11-12T18:19:23.811Z,112.00
2022-11-12T18:21:58.379Z,127.10
2022-11-12T18:24:31.314Z,161.30
2022-11-12T18:27:06.868Z,156.00
2022-11-12T18:29:41.827Z,161.60
2022-11-12T18:32:16.254Z,127.20
2022-11-12T18:34:52.254Z,127.20
2022-11-12T18:37:24.511Z,156.30
2022-11-12T18:39:57.206Z,149.80
2022-11-12T18:42:31.834Z,144.50
2022-11-12T18:45:04.791Z,146.10
2022-11-12T18:47:38.288Z,147.20
2022-11-12T18:50:12.272Z,137.70
2022-11-12T18:52:44.967Z,124.90
2022-11-12T18:55:17.096Z,141.10
2022-11-12T18:57:51.459Z,135.10
2022-11-12T19:00:25.778Z,128.30
2022-11-12T19:02:59.128Z,138.90
2022-11-12T19:05:33.981Z,130.20
2022-11-12T19:08:06.899Z,133.50
2022-11-12T19:10:39.846Z,127.20
2022-11-12T19:13:12.445Z,142.60
2022-11-12T19:15:46.410Z,138.50
2022-11-12T19:18:19.084Z,140.60
2022-11-12T19:20:53.057Z,136.50
2022-11-12T19:23:26.172Z,131.40
2022-11-12T19:25:59.219Z,117.10
2022-11-12T19:28:31.424Z,133.20
2022-11-12T19:31:07.565Z,127.00
2022-11-12T19:33:40.060Z,120.50
2022-11-12T19:36:14.817Z,119.30
2022-11-12T19:38:46.969Z,136.40
2022-11-12T19:41:20.346Z,121.50
2022-11-12T19:43:54.576Z,112.60
2022-11-12T19:46:27.512Z,110.90
2022-11-12T19:49:00.400Z,111.10
2022-11-12T19:51:35.058Z,115.30
2022-11-12T19:54:07.733Z,120.70
2022-11-12T19:56:40.718Z,111.50
2022-11-12T19:59:15.975Z,109.70
2022-11-12T20:01:48.741Z,110.80
2022-11-12T20:04:24.358Z,122.10
2022-11-12T20:06:57.245Z,113.20
2022-11-12T20:09:33.550Z,120.10
2022-11-12T20:12:07.256Z,118.10
2022-11-12T20:14:43.550Z,119.00
2022-11-12T20:17:15.801Z,115.50
2022-11-12T20:19:48.438Z,117.90
2022-11-12T20:22:24.812Z,110.80
2022-11-12T20:25:01.007Z,134.70
2022-11-12T20:27:34.016Z,116.30
2022-11-12T20:30:10.226Z,111.40
2022-11-12T20:32:42.697Z,117.40
2022-11-12T20:35:22.029Z,117.90
2022-11-12T20:37:54.529Z,108.60
2022-11-12T20:40:27.458Z,119.00
2022-11-12T20:43:04.119Z,111.90
2022-11-12T20:45:36.750Z,114.50
2022-11-12T20:48:09.660Z,111.40
2022-11-12T20:51:02.347Z,109.10
2022-11-12T20:53:35.373Z,102.40
2022-11-12T20:56:12.971Z,119.30
2022-11-12T20:58:45.866Z,126.30
2022-11-12T21:01:21.832Z,123.70
2022-11-12T21:03:56.359Z,132.90
2022-11-12T21:06:32.902Z,128.80
2022-11-12T21:09:08.156Z,131.90
2022-11-12T21:11:40.717Z,147.00
2022-11-12T21:14:15.331Z,143.30
2022-11-12T21:16:47.527Z,142.00
2022-11-12T21:19:21.127Z,144.20
2022-11-12T21:21:56.511Z,148.60
2022-11-12T21:24:29.260Z,137.30
2022-11-12T21:27:08.787Z,137.50
2022-11-12T21:29:40.866Z,129.30
2022-11-12T21:32:16.477Z,120.10
2022-11-12T21:34:51.923Z,118.10
2022-11-12T21:37:30.834Z,122.10
2022-11-12T21:40:13.045Z,125.40
2022-11-12T21:42:47.737Z,118.70
2022-11-12T21:45:21.258Z,112.70
2022-11-12T21:47:55.494Z,118.10
2022-11-12T21:50:27.981Z,109.50
2022-11-12T21:53:00.509Z,111.00
2022-11-12T21:55:34.684Z,101.00
2022-11-12T21:58:07.580Z,99.00
2022-11-12T22:00:42.527Z,86.60
2022-11-12T22:03:16.919Z,86.50
2022-11-12T22:05:50.085Z,83.60
2022-11-12T22:08:25.483Z,88.40
2022-11-12T22:11:05.283Z,82.00
2022-11-12T22:13:37.839Z,78.60
2022-11-12T22:16:14.969Z,108.10
2022-11-12T22:18:50.361Z,86.90
2022-11-12T22:21:26.927Z,80.40
2022-11-12T22:24:02.291Z,84.40
2022-11-12T22:26:34.548Z,84.90
2022-11-12T22:29:07.423Z,90.00
2022-11-12T22:31:42.071Z,82.90
2022-11-12T22:34:16.109Z,120.60
2022-11-12T22:36:48.846Z,75.70
2022-11-12T22:39:24.815Z,76.70
2022-11-12T22:41:58.549Z,69.10
2022-11-12T22:44:32.956Z,71.20
2022-11-12T22:47:06.449Z,73.10
2022-11-12T22:49:38.462Z,74.60
2022-11-12T22:52:13.268Z,75.80
2022-11-12T22:54:48.292Z,77.80
2022-11-12T22:57:23.784Z,74.00
2022-11-12T23:00:03.726Z,75.30
2022-11-12T23:02:41.221Z,77.20
2022-11-12T23:05:31.836Z,75.10
2022-11-12T23:08:06.643Z,72.60
2022-11-12T23:10:45.760Z,80.40
2022-11-12T23:13:20.047Z,76.50
2022-11-12T23:15:55.069Z,82.20
2022-11-12T23:18:29.514Z,79.50
2022-11-12T23:21:07.302Z,80.30
2022-11-12T23:23:44.691Z,85.00
2022-11-12T23:26:20.124Z,73.40
2022-11-12T23:28:53.368Z,67.40
2022-11-12T23:31:27.559Z,72.80
2022-11-12T23:34:02.572Z,73.00
2022-11-12T23:36:35.873Z,63.00
2022-11-12T23:39:08.344Z,59.70
2022-11-12T23:41:40.932Z,55.00
2022-11-12T23:44:13.707Z,54.80
2022-11-12T23:46:48.561Z,55.70
2022-11-12T23:49:20.549Z,64.90
2022-11-12T23:51:55.304Z,54.00
2022-11-12T23:54:27.872Z,56.30
2022-11-12T23:57:01.438Z,52.70
2022-11-12T23:59:34.593Z,59.90
